sensor_id;sensor_type;location;lat;lon;timestamp;temperature;humidity
6865;DHT22;3471;49.678;8.388;2023-08-06T00:01:50;18.40;99.90
6865;DHT22;3471;49.678;8.388;2023-08-06T00:04:16;18.50;99.90
6865;DHT22;3471;49.678;8.388;2023-08-06T00:06:42;18.50;99.90
6865;DHT22;3471;49.678;8.388;2023-08-06T00:09:07;18.50;99.90
6865;DHT22;3471;49.678;8.388;2023-08-06T00:11:33;18.60;99.90
6865;DHT22;3471;49.678;8.388;2023-08-06T00:13:59;18.60;99.90
6865;DHT22;3471;49.678;8.388;2023-08-06T00:16:24;18.60;99.90
6865;DHT22;3471;49.678;8.388;2023-08-06T00:18:50;18.60;99.90
6865;DHT22;3471;49.678;8.388;2023-08-06T00:21:15;18.70;99.90
6865;DHT22;3471;49.678;8.388;2023-08-06T00:23:41;18.60;99.90
6865;DHT22;3471;49.678;8.388;2023-08-06T00:26:07;18.60;99.90
6865;DHT22;3471;49.678;8.388;2023-08-06T00:28:32;18.60;99.90
6865;DHT22;3471;49.678;8.388;2023-08-06T00:30:58;18.60;99.90
6865;DHT22;3471;49.678;8.388;2023-08-06T00:33:24;18.60;99.90
6865;DHT22;3471;49.678;8.388;2023-08-06T00:35:50;18.50;99.90
6865;DHT22;3471;49.678;8.388;2023-08-06T00:38:16;18.60;99.90
6865;DHT22;3471;49.678;8.388;2023-08-06T00:40:41;18.60;99.90
6865;DHT22;3471;49.678;8.388;2023-08-06T00:43:07;18.60;99.90
6865;DHT22;3471;49.678;8.388;2023-08-06T00:45:37;18.60;99.90
6865;DHT22;3471;49.678;8.388;2023-08-06T00:48:04;18.60;99.90
6865;DHT22;3471;49.678;8.388;2023-08-06T00:50:30;18.60;99.90
6865;DHT22;3471;49.678;8.388;2023-08-06T00:52:56;18.50;99.90
6865;DHT22;3471;49.678;8.388;2023-08-06T00:55:22;18.50;99.90
6865;DHT22;3471;49.678;8.388;2023-08-06T00:57:48;18.50;99.90
6865;DHT22;3471;49.678;8.388;2023-08-06T01:00:14;18.50;99.90
6865;DHT22;3471;49.678;8.388;2023-08-06T01:02:39;18.50;99.90
6865;DHT22;3471;49.678;8.388;2023-08-06T01:05:05;18.60;99.90
6865;DHT22;3471;49.678;8.388;2023-08-06T01:15:24;18.50;99.90
6865;DHT22;3471;49.678;8.388;2023-08-06T01:17:53;18.50;99.90
6865;DHT22;3471;49.678;8.388;2023-08-06T01:20:19;18.50;99.90
6865;DHT22;3471;49.678;8.388;2023-08-06T01:22:45;18.50;99.90
6865;DHT22;3471;49.678;8.388;2023-08-06T01:25:10;18.50;99.90
6865;DHT22;3471;49.678;8.388;2023-08-06T01:27:49;18.50;99.90
6865;DHT22;3471;49.678;8.388;2023-08-06T01:30:25;18.40;99.90
6865;DHT22;3471;49.678;8.388;2023-08-06T01:32:54;18.40;99.90
6865;DHT22;3471;49.678;8.388;2023-08-06T01:35:21;18.30;99.90
6865;DHT22;3471;49.678;8.388;2023-08-06T01:37:48;18.30;99.90
6865;DHT22;3471;49.678;8.388;2023-08-06T01:40:14;18.30;99.90
6865;DHT22;3471;49.678;8.388;2023-08-06T01:42:40;18.30;99.90
6865;DHT22;3471;49.678;8.388;2023-08-06T01:45:09;18.30;99.90
6865;DHT22;3471;49.678;8.388;2023-08-06T01:47:35;18.30;99.90
6865;DHT22;3471;49.678;8.388;2023-08-06T01:50:01;18.20;99.90
6865;DHT22;3471;49.678;8.388;2023-08-06T01:52:27;18.20;99.90
6865;DHT22;3471;49.678;8.388;2023-08-06T01:54:52;18.20;99.90
6865;DHT22;3471;49.678;8.388;2023-08-06T01:57:18;18.20;99.90
6865;DHT22;3471;49.678;8.388;2023-08-06T01:59:44;18.20;99.90
6865;DHT22;3471;49.678;8.388;2023-08-06T02:02:09;18.30;99.90
6865;DHT22;3471;49.678;8.388;2023-08-06T02:04:35;18.30;99.90
6865;DHT22;3471;49.678;8.388;2023-08-06T02:07:00;18.20;99.90
6865;DHT22;3471;49.678;8.388;2023-08-06T02:09:26;18.20;99.90
6865;DHT22;3471;49.678;8.388;2023-08-06T02:11:52;18.20;99.90
6865;DHT22;3471;49.678;8.388;2023-08-06T02:14:17;18.20;99.90
6865;DHT22;3471;49.678;8.388;2023-08-06T02:16:43;18.20;99.90
6865;DHT22;3471;49.678;8.388;2023-08-06T02:19:08;18.10;99.90
6865;DHT22;3471;49.678;8.388;2023-08-06T02:21:34;18.10;99.90
6865;DHT22;3471;49.678;8.388;2023-08-06T02:23:59;18.00;99.90
6865;DHT22;3471;49.678;8.388;2023-08-06T02:26:25;18.00;99.90
6865;DHT22;3471;49.678;8.388;2023-08-06T02:28:50;18.00;99.90
6865;DHT22;3471;49.678;8.388;2023-08-06T02:31:16;17.90;99.90
6865;DHT22;3471;49.678;8.388;2023-08-06T02:33:42;17.80;99.90
6865;DHT22;3471;49.678;8.388;2023-08-06T02:36:07;17.80;99.90
6865;DHT22;3471;49.678;8.388;2023-08-06T02:38:33;17.80;99.90
6865;DHT22;3471;49.678;8.388;2023-08-06T02:40:59;17.80;99.90
6865;DHT22;3471;49.678;8.388;2023-08-06T02:43:27;17.70;99.90
6865;DHT22;3471;49.678;8.388;2023-08-06T02:45:56;17.70;99.90
6865;DHT22;3471;49.678;8.388;2023-08-06T02:48:21;17.70;99.90
6865;DHT22;3471;49.678;8.388;2023-08-06T02:50:47;17.70;99.90
6865;DHT22;3471;49.678;8.388;2023-08-06T02:53:12;17.70;99.90
6865;DHT22;3471;49.678;8.388;2023-08-06T02:55:38;17.70;99.90
6865;DHT22;3471;49.678;8.388;2023-08-06T02:58:10;17.70;99.90
6865;DHT22;3471;49.678;8.388;2023-08-06T03:00:35;17.80;99.90
6865;DHT22;3471;49.678;8.388;2023-08-06T03:03:01;17.80;99.90
6865;DHT22;3471;49.678;8.388;2023-08-06T03:05:26;17.80;99.90
6865;DHT22;3471;49.678;8.388;2023-08-06T03:07:52;17.90;99.90
6865;DHT22;3471;49.678;8.388;2023-08-06T03:10:17;17.90;99.90
6865;DHT22;3471;49.678;8.388;2023-08-06T03:12:43;17.90;99.90
6865;DHT22;3471;49.678;8.388;2023-08-06T03:15:09;17.90;99.90
6865;DHT22;3471;49.678;8.388;2023-08-06T03:17:35;17.90;99.90
6865;DHT22;3471;49.678;8.388;2023-08-06T03:20:00;17.90;99.90
6865;DHT22;3471;49.678;8.388;2023-08-06T03:22:26;17.90;99.90
6865;DHT22;3471;49.678;8.388;2023-08-06T03:24:51;17.90;99.90
6865;DHT22;3471;49.678;8.388;2023-08-06T03:27:17;17.90;99.90
6865;DHT22;3471;49.678;8.388;2023-08-06T03:29:42;17.90;99.90
6865;DHT22;3471;49.678;8.388;2023-08-06T03:32:08;18.00;99.90
6865;DHT22;3471;49.678;8.388;2023-08-06T03:34:34;18.00;99.90
6865;DHT22;3471;49.678;8.388;2023-08-06T03:36:59;18.10;99.90
6865;DHT22;3471;49.678;8.388;2023-08-06T03:39:25;18.10;99.90
6865;DHT22;3471;49.678;8.388;2023-08-06T03:41:51;18.10;99.90
6865;DHT22;3471;49.678;8.388;2023-08-06T03:44:17;18.20;99.90
6865;DHT22;3471;49.678;8.388;2023-08-06T03:46:42;18.20;99.90
6865;DHT22;3471;49.678;8.388;2023-08-06T03:49:08;18.20;99.90
6865;DHT22;3471;49.678;8.388;2023-08-06T03:51:33;18.20;99.90
6865;DHT22;3471;49.678;8.388;2023-08-06T03:53:59;18.20;99.90
6865;DHT22;3471;49.678;8.388;2023-08-06T03:56:24;18.20;99.90
6865;DHT22;3471;49.678;8.388;2023-08-06T03:58:50;18.20;99.90
6865;DHT22;3471;49.678;8.388;2023-08-06T04:01:16;18.20;99.90
6865;DHT22;3471;49.678;8.388;2023-08-06T04:03:41;18.20;99.90
6865;DHT22;3471;49.678;8.388;2023-08-06T04:06:07;18.20;99.90
6865;DHT22;3471;49.678;8.388;2023-08-06T04:08:33;18.10;99.90
6865;DHT22;3471;49.678;8.388;2023-08-06T04:10:58;17.90;99.90
6865;DHT22;3471;49.678;8.388;2023-08-06T04:13:24;17.90;99.90
6865;DHT22;3471;49.678;8.388;2023-08-06T04:15:50;17.80;99.90
6865;DHT22;3471;49.678;8.388;2023-08-06T04:18:16;17.70;99.90
6865;DHT22;3471;49.678;8.388;2023-08-06T04:20:46;17.70;99.90
6865;DHT22;3471;49.678;8.388;2023-08-06T04:23:12;17.70;99.90
6865;DHT22;3471;49.678;8.388;2023-08-06T04:25:38;17.70;99.90
6865;DHT22;3471;49.678;8.388;2023-08-06T04:28:03;17.70;99.90
6865;DHT22;3471;49.678;8.388;2023-08-06T04:30:29;17.70;99.90
6865;DHT22;3471;49.678;8.388;2023-08-06T04:32:56;17.70;99.90
6865;DHT22;3471;49.678;8.388;2023-08-06T04:35:23;17.70;99.90
6865;DHT22;3471;49.678;8.388;2023-08-06T04:37:48;17.60;99.90
6865;DHT22;3471;49.678;8.388;2023-08-06T04:40:14;17.60;99.90
6865;DHT22;3471;49.678;8.388;2023-08-06T04:42:39;17.50;99.90
6865;DHT22;3471;49.678;8.388;2023-08-06T04:45:06;17.50;99.90
6865;DHT22;3471;49.678;8.388;2023-08-06T04:47:31;17.50;99.90
6865;DHT22;3471;49.678;8.388;2023-08-06T04:49:57;17.50;99.90
6865;DHT22;3471;49.678;8.388;2023-08-06T04:52:22;17.50;99.90
6865;DHT22;3471;49.678;8.388;2023-08-06T04:54:48;17.50;99.90
6865;DHT22;3471;49.678;8.388;2023-08-06T04:57:14;17.50;99.90
6865;DHT22;3471;49.678;8.388;2023-08-06T04:59:39;17.60;99.90
6865;DHT22;3471;49.678;8.388;2023-08-06T05:02:05;17.60;99.90
6865;DHT22;3471;49.678;8.388;2023-08-06T05:04:31;17.60;99.90
6865;DHT22;3471;49.678;8.388;2023-08-06T05:06:56;17.60;99.90
6865;DHT22;3471;49.678;8.388;2023-08-06T05:09:22;17.60;99.90
6865;DHT22;3471;49.678;8.388;2023-08-06T05:11:48;17.60;99.90
6865;DHT22;3471;49.678;8.388;2023-08-06T05:14:14;17.50;99.90
6865;DHT22;3471;49.678;8.388;2023-08-06T05:16:40;17.40;99.90
6865;DHT22;3471;49.678;8.388;2023-08-06T05:19:05;17.40;99.90
6865;DHT22;3471;49.678;8.388;2023-08-06T05:21:31;17.40;99.90
6865;DHT22;3471;49.678;8.388;2023-08-06T05:23:56;17.30;99.90
6865;DHT22;3471;49.678;8.388;2023-08-06T05:26:22;17.30;99.90
6865;DHT22;3471;49.678;8.388;2023-08-06T05:28:47;17.30;99.90
6865;DHT22;3471;49.678;8.388;2023-08-06T05:31:13;17.30;99.90
6865;DHT22;3471;49.678;8.388;2023-08-06T05:33:39;17.40;99.90
6865;DHT22;3471;49.678;8.388;2023-08-06T05:36:04;17.30;99.90
6865;DHT22;3471;49.678;8.388;2023-08-06T05:38:30;17.30;99.90
6865;DHT22;3471;49.678;8.388;2023-08-06T05:40:56;17.30;99.90
6865;DHT22;3471;49.678;8.388;2023-08-06T05:43:22;17.30;99.90
6865;DHT22;3471;49.678;8.388;2023-08-06T05:45:49;17.30;99.90
6865;DHT22;3471;49.678;8.388;2023-08-06T05:48:15;17.20;99.90
6865;DHT22;3471;49.678;8.388;2023-08-06T05:50:41;17.20;99.90
6865;DHT22;3471;49.678;8.388;2023-08-06T05:53:07;17.20;99.90
6865;DHT22;3471;49.678;8.388;2023-08-06T05:55:33;17.20;99.90
6865;DHT22;3471;49.678;8.388;2023-08-06T05:57:58;17.20;99.90
6865;DHT22;3471;49.678;8.388;2023-08-06T06:00:24;17.20;99.90
6865;DHT22;3471;49.678;8.388;2023-08-06T06:02:49;17.20;99.90
6865;DHT22;3471;49.678;8.388;2023-08-06T06:05:15;17.30;99.90
6865;DHT22;3471;49.678;8.388;2023-08-06T06:07:41;17.40;99.90
6865;DHT22;3471;49.678;8.388;2023-08-06T06:10:07;17.40;99.90
6865;DHT22;3471;49.678;8.388;2023-08-06T06:12:32;17.40;99.90
6865;DHT22;3471;49.678;8.388;2023-08-06T06:14:58;17.40;99.90
6865;DHT22;3471;49.678;8.388;2023-08-06T06:17:26;17.40;99.90
6865;DHT22;3471;49.678;8.388;2023-08-06T06:19:52;17.40;99.90
6865;DHT22;3471;49.678;8.388;2023-08-06T06:22:17;17.40;99.90
6865;DHT22;3471;49.678;8.388;2023-08-06T06:24:43;17.30;99.90
6865;DHT22;3471;49.678;8.388;2023-08-06T06:27:09;17.30;99.90
6865;DHT22;3471;49.678;8.388;2023-08-06T06:29:34;17.30;99.90
6865;DHT22;3471;49.678;8.388;2023-08-06T06:32:00;17.40;99.90
6865;DHT22;3471;49.678;8.388;2023-08-06T06:34:25;17.40;99.90
6865;DHT22;3471;49.678;8.388;2023-08-06T06:36:51;17.50;99.90
6865;DHT22;3471;49.678;8.388;2023-08-06T06:39:17;17.50;99.90
6865;DHT22;3471;49.678;8.388;2023-08-06T06:41:43;17.50;99.90
6865;DHT22;3471;49.678;8.388;2023-08-06T06:44:09;17.50;99.90
6865;DHT22;3471;49.678;8.388;2023-08-06T06:46:35;17.50;99.90
6865;DHT22;3471;49.678;8.388;2023-08-06T06:49:01;17.50;99.90
6865;DHT22;3471;49.678;8.388;2023-08-06T06:51:26;17.50;99.90
6865;DHT22;3471;49.678;8.388;2023-08-06T06:53:52;17.50;99.90
6865;DHT22;3471;49.678;8.388;2023-08-06T06:56:17;17.50;99.90
6865;DHT22;3471;49.678;8.388;2023-08-06T06:58:43;17.50;99.90
6865;DHT22;3471;49.678;8.388;2023-08-06T07:01:10;17.50;99.90
6865;DHT22;3471;49.678;8.388;2023-08-06T07:03:37;17.50;99.90
6865;DHT22;3471;49.678;8.388;2023-08-06T07:06:02;17.50;99.90
6865;DHT22;3471;49.678;8.388;2023-08-06T07:08:29;17.60;99.90
6865;DHT22;3471;49.678;8.388;2023-08-06T07:11:05;17.60;99.90
6865;DHT22;3471;49.678;8.388;2023-08-06T07:13:32;17.60;99.90
6865;DHT22;3471;49.678;8.388;2023-08-06T07:16:00;17.70;99.90
6865;DHT22;3471;49.678;8.388;2023-08-06T07:18:25;17.80;99.90
6865;DHT22;3471;49.678;8.388;2023-08-06T07:20:53;17.90;99.90
6865;DHT22;3471;49.678;8.388;2023-08-06T07:23:23;17.90;99.90
6865;DHT22;3471;49.678;8.388;2023-08-06T07:25:49;18.00;99.90
6865;DHT22;3471;49.678;8.388;2023-08-06T07:28:15;18.00;99.90
6865;DHT22;3471;49.678;8.388;2023-08-06T07:30:42;18.00;99.90
6865;DHT22;3471;49.678;8.388;2023-08-06T07:33:08;18.00;99.90
6865;DHT22;3471;49.678;8.388;2023-08-06T07:35:34;18.10;99.90
6865;DHT22;3471;49.678;8.388;2023-08-06T07:38:00;18.20;99.90
6865;DHT22;3471;49.678;8.388;2023-08-06T07:40:26;18.30;99.90
6865;DHT22;3471;49.678;8.388;2023-08-06T07:42:51;18.50;99.90
6865;DHT22;3471;49.678;8.388;2023-08-06T07:45:18;18.60;99.90
6865;DHT22;3471;49.678;8.388;2023-08-06T07:47:44;18.70;99.90
6865;DHT22;3471;49.678;8.388;2023-08-06T07:50:09;18.80;99.90
6865;DHT22;3471;49.678;8.388;2023-08-06T07:52:35;18.80;99.90
6865;DHT22;3471;49.678;8.388;2023-08-06T07:55:01;18.80;99.90
6865;DHT22;3471;49.678;8.388;2023-08-06T07:57:33;18.90;99.90
6865;DHT22;3471;49.678;8.388;2023-08-06T08:00:00;19.00;99.90
6865;DHT22;3471;49.678;8.388;2023-08-06T08:02:25;19.10;99.90
6865;DHT22;3471;49.678;8.388;2023-08-06T08:04:51;19.10;99.90
6865;DHT22;3471;49.678;8.388;2023-08-06T08:07:17;19.20;99.90
6865;DHT22;3471;49.678;8.388;2023-08-06T08:09:43;19.20;99.90
6865;DHT22;3471;49.678;8.388;2023-08-06T08:12:09;19.20;99.90
6865;DHT22;3471;49.678;8.388;2023-08-06T08:14:34;19.20;99.90
6865;DHT22;3471;49.678;8.388;2023-08-06T08:17:03;19.20;99.90
6865;DHT22;3471;49.678;8.388;2023-08-06T08:19:30;19.20;99.90
6865;DHT22;3471;49.678;8.388;2023-08-06T08:21:55;19.20;99.90
6865;DHT22;3471;49.678;8.388;2023-08-06T08:24:21;19.20;99.90
6865;DHT22;3471;49.678;8.388;2023-08-06T08:26:50;19.10;99.90
6865;DHT22;3471;49.678;8.388;2023-08-06T08:29:15;19.20;99.90
6865;DHT22;3471;49.678;8.388;2023-08-06T08:31:41;19.40;99.90
6865;DHT22;3471;49.678;8.388;2023-08-06T08:34:06;19.70;99.90
6865;DHT22;3471;49.678;8.388;2023-08-06T08:36:32;19.80;99.90
6865;DHT22;3471;49.678;8.388;2023-08-06T08:38:57;19.80;99.90
6865;DHT22;3471;49.678;8.388;2023-08-06T08:41:23;19.90;99.90
6865;DHT22;3471;49.678;8.388;2023-08-06T08:43:50;19.90;99.90
6865;DHT22;3471;49.678;8.388;2023-08-06T08:46:19;19.90;99.90
6865;DHT22;3471;49.678;8.388;2023-08-06T08:48:45;19.90;99.90
6865;DHT22;3471;49.678;8.388;2023-08-06T08:51:12;19.80;99.90
6865;DHT22;3471;49.678;8.388;2023-08-06T08:53:39;19.70;99.90
6865;DHT22;3471;49.678;8.388;2023-08-06T08:56:05;19.60;99.90
6865;DHT22;3471;49.678;8.388;2023-08-06T08:58:31;19.50;99.90
6865;DHT22;3471;49.678;8.388;2023-08-06T09:00:57;19.40;99.90
6865;DHT22;3471;49.678;8.388;2023-08-06T09:03:23;19.40;99.90
6865;DHT22;3471;49.678;8.388;2023-08-06T09:05:53;19.40;99.90
6865;DHT22;3471;49.678;8.388;2023-08-06T09:08:23;19.40;99.90
6865;DHT22;3471;49.678;8.388;2023-08-06T09:10:50;19.40;99.90
6865;DHT22;3471;49.678;8.388;2023-08-06T09:13:17;19.40;99.90
6865;DHT22;3471;49.678;8.388;2023-08-06T09:15:43;19.40;99.90
6865;DHT22;3471;49.678;8.388;2023-08-06T09:18:12;19.50;99.90
6865;DHT22;3471;49.678;8.388;2023-08-06T09:20:39;19.60;99.90
6865;DHT22;3471;49.678;8.388;2023-08-06T09:23:10;19.60;99.90
6865;DHT22;3471;49.678;8.388;2023-08-06T09:25:39;19.70;99.90
6865;DHT22;3471;49.678;8.388;2023-08-06T09:28:08;19.80;99.90
6865;DHT22;3471;49.678;8.388;2023-08-06T09:30:36;19.90;99.90
6865;DHT22;3471;49.678;8.388;2023-08-06T09:33:01;19.80;99.90
6865;DHT22;3471;49.678;8.388;2023-08-06T09:35:31;19.80;99.90
6865;DHT22;3471;49.678;8.388;2023-08-06T09:38:07;19.70;99.90
6865;DHT22;3471;49.678;8.388;2023-08-06T09:40:34;19.60;99.90
6865;DHT22;3471;49.678;8.388;2023-08-06T09:42:59;19.60;99.90
6865;DHT22;3471;49.678;8.388;2023-08-06T09:45:31;19.60;99.90
6865;DHT22;3471;49.678;8.388;2023-08-06T09:48:04;19.50;99.90
6865;DHT22;3471;49.678;8.388;2023-08-06T09:50:31;19.50;99.90
6865;DHT22;3471;49.678;8.388;2023-08-06T09:52:58;19.40;99.90
6865;DHT22;3471;49.678;8.388;2023-08-06T09:55:24;19.30;99.90
6865;DHT22;3471;49.678;8.388;2023-08-06T09:57:52;19.30;99.90
6865;DHT22;3471;49.678;8.388;2023-08-06T10:00:17;19.20;99.90
6865;DHT22;3471;49.678;8.388;2023-08-06T10:02:43;19.20;99.90
6865;DHT22;3471;49.678;8.388;2023-08-06T10:05:10;19.20;99.90
6865;DHT22;3471;49.678;8.388;2023-08-06T10:07:36;19.20;99.90
6865;DHT22;3471;49.678;8.388;2023-08-06T10:10:06;19.20;99.90
6865;DHT22;3471;49.678;8.388;2023-08-06T10:12:38;19.30;99.90
6865;DHT22;3471;49.678;8.388;2023-08-06T10:15:09;19.30;99.90
6865;DHT22;3471;49.678;8.388;2023-08-06T10:17:37;19.30;99.90
6865;DHT22;3471;49.678;8.388;2023-08-06T10:20:08;19.40;99.90
6865;DHT22;3471;49.678;8.388;2023-08-06T10:22:34;19.40;99.90
6865;DHT22;3471;49.678;8.388;2023-08-06T10:25:03;19.20;99.90
6865;DHT22;3471;49.678;8.388;2023-08-06T10:30:28;18.90;99.90
6865;DHT22;3471;49.678;8.388;2023-08-06T10:33:04;18.70;99.90
6865;DHT22;3471;49.678;8.388;2023-08-06T10:35:50;18.60;99.90
6865;DHT22;3471;49.678;8.388;2023-08-06T10:38:18;18.50;99.90
6865;DHT22;3471;49.678;8.388;2023-08-06T10:43:29;18.40;99.90
6865;DHT22;3471;49.678;8.388;2023-08-06T10:45:56;18.30;99.90
6865;DHT22;3471;49.678;8.388;2023-08-06T10:48:41;18.30;99.90
6865;DHT22;3471;49.678;8.388;2023-08-06T10:51:11;18.30;99.90
6865;DHT22;3471;49.678;8.388;2023-08-06T10:53:38;18.30;99.90
6865;DHT22;3471;49.678;8.388;2023-08-06T10:58:39;18.40;99.90
6865;DHT22;3471;49.678;8.388;2023-08-06T11:01:05;18.50;99.90
6865;DHT22;3471;49.678;8.388;2023-08-06T11:03:32;18.50;99.90
6865;DHT22;3471;49.678;8.388;2023-08-06T11:05:58;18.50;99.90
6865;DHT22;3471;49.678;8.388;2023-08-06T11:08:27;18.50;99.90
6865;DHT22;3471;49.678;8.388;2023-08-06T11:10:53;18.50;99.90
6865;DHT22;3471;49.678;8.388;2023-08-06T11:13:20;18.60;99.90
6865;DHT22;3471;49.678;8.388;2023-08-06T11:15:46;18.60;99.90
6865;DHT22;3471;49.678;8.388;2023-08-06T11:18:12;18.60;99.90
6865;DHT22;3471;49.678;8.388;2023-08-06T11:20:39;18.60;99.90
6865;DHT22;3471;49.678;8.388;2023-08-06T11:23:05;18.70;99.90
6865;DHT22;3471;49.678;8.388;2023-08-06T11:25:35;18.80;99.90
6865;DHT22;3471;49.678;8.388;2023-08-06T11:28:01;18.90;99.90
6865;DHT22;3471;49.678;8.388;2023-08-06T11:30:27;18.90;99.90
6865;DHT22;3471;49.678;8.388;2023-08-06T11:32:52;19.00;99.90
6865;DHT22;3471;49.678;8.388;2023-08-06T11:35:18;19.10;99.90
6865;DHT22;3471;49.678;8.388;2023-08-06T11:37:45;19.20;99.90
6865;DHT22;3471;49.678;8.388;2023-08-06T11:40:17;19.30;99.90
6865;DHT22;3471;49.678;8.388;2023-08-06T11:42:42;19.40;99.90
6865;DHT22;3471;49.678;8.388;2023-08-06T11:45:08;19.30;99.90
6865;DHT22;3471;49.678;8.388;2023-08-06T11:47:38;19.30;99.90
6865;DHT22;3471;49.678;8.388;2023-08-06T11:50:04;19.30;99.90
6865;DHT22;3471;49.678;8.388;2023-08-06T11:52:30;19.10;99.90
6865;DHT22;3471;49.678;8.388;2023-08-06T11:55:03;19.00;99.90
6865;DHT22;3471;49.678;8.388;2023-08-06T11:57:33;18.80;99.90
6865;DHT22;3471;49.678;8.388;2023-08-06T12:00:10;18.70;99.90
6865;DHT22;3471;49.678;8.388;2023-08-06T12:02:39;18.60;99.90
6865;DHT22;3471;49.678;8.388;2023-08-06T12:05:17;18.60;99.90
6865;DHT22;3471;49.678;8.388;2023-08-06T12:07:45;18.60;99.90
6865;DHT22;3471;49.678;8.388;2023-08-06T12:10:12;18.60;99.90
6865;DHT22;3471;49.678;8.388;2023-08-06T12:12:38;18.50;99.90
6865;DHT22;3471;49.678;8.388;2023-08-06T12:15:05;18.60;99.90
6865;DHT22;3471;49.678;8.388;2023-08-06T12:17:32;18.60;99.90
6865;DHT22;3471;49.678;8.388;2023-08-06T12:19:58;18.70;99.90
6865;DHT22;3471;49.678;8.388;2023-08-06T12:22:23;18.60;99.90
6865;DHT22;3471;49.678;8.388;2023-08-06T12:24:49;18.50;99.90
6865;DHT22;3471;49.678;8.388;2023-08-06T12:27:14;18.50;99.90
6865;DHT22;3471;49.678;8.388;2023-08-06T12:29:44;18.60;99.90
6865;DHT22;3471;49.678;8.388;2023-08-06T12:32:11;18.60;99.90
6865;DHT22;3471;49.678;8.388;2023-08-06T12:34:38;18.60;99.90
6865;DHT22;3471;49.678;8.388;2023-08-06T12:37:04;18.70;99.90
6865;DHT22;3471;49.678;8.388;2023-08-06T12:39:30;18.90;99.90
6865;DHT22;3471;49.678;8.388;2023-08-06T12:41:56;19.10;99.90
6865;DHT22;3471;49.678;8.388;2023-08-06T12:44:23;19.30;99.90
6865;DHT22;3471;49.678;8.388;2023-08-06T12:46:50;19.40;99.90
6865;DHT22;3471;49.678;8.388;2023-08-06T12:49:16;19.40;99.90
6865;DHT22;3471;49.678;8.388;2023-08-06T12:51:42;19.50;99.90
6865;DHT22;3471;49.678;8.388;2023-08-06T12:54:08;19.40;99.90
6865;DHT22;3471;49.678;8.388;2023-08-06T12:56:34;19.30;99.90
6865;DHT22;3471;49.678;8.388;2023-08-06T12:59:00;19.20;99.90
6865;DHT22;3471;49.678;8.388;2023-08-06T13:01:25;19.00;99.90
6865;DHT22;3471;49.678;8.388;2023-08-06T13:03:51;19.00;99.90
6865;DHT22;3471;49.678;8.388;2023-08-06T13:06:16;19.00;99.90
6865;DHT22;3471;49.678;8.388;2023-08-06T13:08:42;19.00;99.90
6865;DHT22;3471;49.678;8.388;2023-08-06T13:11:08;19.20;99.90
6865;DHT22;3471;49.678;8.388;2023-08-06T13:13:33;19.30;99.90
6865;DHT22;3471;49.678;8.388;2023-08-06T13:15:59;19.30;99.90
6865;DHT22;3471;49.678;8.388;2023-08-06T13:18:25;19.30;99.90
6865;DHT22;3471;49.678;8.388;2023-08-06T13:20:53;19.30;99.90
6865;DHT22;3471;49.678;8.388;2023-08-06T13:23:19;19.20;99.90
6865;DHT22;3471;49.678;8.388;2023-08-06T13:25:45;19.20;99.90
6865;DHT22;3471;49.678;8.388;2023-08-06T13:28:11;19.20;99.90
6865;DHT22;3471;49.678;8.388;2023-08-06T13:30:36;19.20;99.90
6865;DHT22;3471;49.678;8.388;2023-08-06T13:33:07;19.20;99.90
6865;DHT22;3471;49.678;8.388;2023-08-06T13:35:33;19.10;99.90
6865;DHT22;3471;49.678;8.388;2023-08-06T13:37:59;18.90;99.90
6865;DHT22;3471;49.678;8.388;2023-08-06T13:40:25;18.80;99.90
6865;DHT22;3471;49.678;8.388;2023-08-06T13:42:50;18.80;99.90
6865;DHT22;3471;49.678;8.388;2023-08-06T13:45:16;18.80;99.90
6865;DHT22;3471;49.678;8.388;2023-08-06T13:47:42;18.80;99.90
6865;DHT22;3471;49.678;8.388;2023-08-06T13:50:08;18.80;99.90
6865;DHT22;3471;49.678;8.388;2023-08-06T13:52:33;18.70;99.90
6865;DHT22;3471;49.678;8.388;2023-08-06T13:55:01;18.70;99.90
6865;DHT22;3471;49.678;8.388;2023-08-06T13:57:26;18.60;99.90
6865;DHT22;3471;49.678;8.388;2023-08-06T13:59:52;18.60;99.90
6865;DHT22;3471;49.678;8.388;2023-08-06T14:02:17;18.60;99.90
6865;DHT22;3471;49.678;8.388;2023-08-06T14:04:43;18.50;99.90
6865;DHT22;3471;49.678;8.388;2023-08-06T14:07:08;18.50;99.90
6865;DHT22;3471;49.678;8.388;2023-08-06T14:09:34;18.40;99.90
6865;DHT22;3471;49.678;8.388;2023-08-06T14:12:00;18.40;99.90
6865;DHT22;3471;49.678;8.388;2023-08-06T14:14:25;18.30;99.90
6865;DHT22;3471;49.678;8.388;2023-08-06T14:16:53;18.30;99.90
6865;DHT22;3471;49.678;8.388;2023-08-06T14:19:19;18.30;99.90
6865;DHT22;3471;49.678;8.388;2023-08-06T14:21:45;18.30;99.90
6865;DHT22;3471;49.678;8.388;2023-08-06T14:24:10;18.30;99.90
6865;DHT22;3471;49.678;8.388;2023-08-06T14:26:36;18.20;99.90
6865;DHT22;3471;49.678;8.388;2023-08-06T14:29:02;18.20;99.90
6865;DHT22;3471;49.678;8.388;2023-08-06T14:31:28;18.20;99.90
6865;DHT22;3471;49.678;8.388;2023-08-06T14:33:54;18.20;99.90
6865;DHT22;3471;49.678;8.388;2023-08-06T14:36:19;18.20;99.90
6865;DHT22;3471;49.678;8.388;2023-08-06T14:38:45;18.20;99.90
6865;DHT22;3471;49.678;8.388;2023-08-06T14:41:11;18.10;99.90
6865;DHT22;3471;49.678;8.388;2023-08-06T14:43:36;18.10;99.90
6865;DHT22;3471;49.678;8.388;2023-08-06T14:46:02;18.10;99.90
6865;DHT22;3471;49.678;8.388;2023-08-06T14:48:29;18.10;99.90
6865;DHT22;3471;49.678;8.388;2023-08-06T14:50:54;18.10;99.90
6865;DHT22;3471;49.678;8.388;2023-08-06T14:53:20;18.00;99.90
6865;DHT22;3471;49.678;8.388;2023-08-06T14:55:46;18.00;99.90
6865;DHT22;3471;49.678;8.388;2023-08-06T14:58:12;17.90;99.90
6865;DHT22;3471;49.678;8.388;2023-08-06T15:00:37;17.90;99.90
6865;DHT22;3471;49.678;8.388;2023-08-06T15:03:03;17.80;99.90
6865;DHT22;3471;49.678;8.388;2023-08-06T15:05:28;17.80;99.90
6865;DHT22;3471;49.678;8.388;2023-08-06T15:07:54;17.80;99.90
6865;DHT22;3471;49.678;8.388;2023-08-06T15:10:20;17.80;99.90
6865;DHT22;3471;49.678;8.388;2023-08-06T15:12:46;17.90;99.90
6865;DHT22;3471;49.678;8.388;2023-08-06T15:15:11;17.90;99.90
6865;DHT22;3471;49.678;8.388;2023-08-06T15:17:37;17.90;99.90
6865;DHT22;3471;49.678;8.388;2023-08-06T15:20:03;17.90;99.90
6865;DHT22;3471;49.678;8.388;2023-08-06T15:22:29;18.00;99.90
6865;DHT22;3471;49.678;8.388;2023-08-06T15:24:57;18.00;99.90
6865;DHT22;3471;49.678;8.388;2023-08-06T15:27:23;18.10;99.90
6865;DHT22;3471;49.678;8.388;2023-08-06T15:29:49;18.10;99.90
6865;DHT22;3471;49.678;8.388;2023-08-06T15:32:15;18.10;99.90
6865;DHT22;3471;49.678;8.388;2023-08-06T15:34:40;18.10;99.90
6865;DHT22;3471;49.678;8.388;2023-08-06T15:37:06;18.10;99.90
6865;DHT22;3471;49.678;8.388;2023-08-06T15:39:33;18.00;99.90
6865;DHT22;3471;49.678;8.388;2023-08-06T15:41:58;18.00;99.90
6865;DHT22;3471;49.678;8.388;2023-08-06T15:44:24;18.00;99.90
6865;DHT22;3471;49.678;8.388;2023-08-06T15:46:50;17.90;99.90
6865;DHT22;3471;49.678;8.388;2023-08-06T15:49:15;17.90;99.90
6865;DHT22;3471;49.678;8.388;2023-08-06T15:51:41;17.90;99.90
6865;DHT22;3471;49.678;8.388;2023-08-06T15:54:07;17.90;99.90
6865;DHT22;3471;49.678;8.388;2023-08-06T15:56:32;17.90;99.90
6865;DHT22;3471;49.678;8.388;2023-08-06T15:59:20;17.90;99.90
6865;DHT22;3471;49.678;8.388;2023-08-06T16:01:43;17.90;99.90
6865;DHT22;3471;49.678;8.388;2023-08-06T16:04:09;17.90;99.90
6865;DHT22;3471;49.678;8.388;2023-08-06T16:06:34;17.90;99.90
6865;DHT22;3471;49.678;8.388;2023-08-06T16:09:00;17.80;99.90
6865;DHT22;3471;49.678;8.388;2023-08-06T16:11:26;17.80;99.90
6865;DHT22;3471;49.678;8.388;2023-08-06T16:13:51;17.80;99.90